Connecticut State Prison, Connecticut
Current Conditions -  °F | °C
As of 6:51 AM on Friday 28 Nov 2014 (Local Time) from KBDL Reporting Station
Broken Clouds Broken Clouds  
Wind Chill: 23°   Ceiling: 4500
Heat Index: 31°   Visibility: 10mi
Dew Point: 23°   Wind: 8mph
Humidity: 72%   Direction: 300°WNW
Pressure: 30.05"   Gusts: NA
Location:  41.9956°N, 72.451°W
Report Text: KBDL 281151Z 30007KT 10SM FEW029 BKN045 M01/M05 A3005 RMK AO2 SLP179 T10061050 10000 21011 53010
Loading
Personal Weather Stations






























Interactive Weather Map New forecast layout! Learn more

10-Day Weather Forecast

Advertisements
Track Severe Weather on mobile